<?xml version='1.0' encoding='UTF-8'?><gpx version="1.1" creator="JPX - https://github.com/jenetics/jpx" xmlns="http://www.topografix.com/GPX/1/1"><trk><trkseg><trkpt lat="45.9328717" lon="8.4217417"><ele>208.0</ele><time>2026-04-11T18:20:35.614Z</time></trkpt><trkpt lat="45.9325868" lon="8.4240481"><ele>208.0</ele><time>2026-04-11T18:20:38.529Z</time></trkpt><trkpt lat="45.9325915" lon="8.4243366"><ele>208.0</ele><time>2026-04-11T18:20:40.406Z</time></trkpt><trkpt lat="45.9318327" lon="8.4255843"><ele>209.0</ele><time>2026-04-11T18:20:41.549Z</time></trkpt><trkpt lat="45.931638" lon="8.4259271"><ele>210.0</ele><time>2026-04-11T18:20:42.653Z</time></trkpt><trkpt lat="45.9315818" lon="8.4258792"><ele>211.0</ele><time>2026-04-11T18:20:49.177Z</time></trkpt><trkpt lat="45.9315497" lon="8.4257724"><ele>210.99999999999997</ele><time>2026-04-11T18:20:52.287Z</time></trkpt><trkpt lat="45.9315305" lon="8.4256481"><ele>211.0</ele><time>2026-04-11T18:20:56.196Z</time></trkpt><trkpt lat="45.9314986" lon="8.4255659"><ele>211.0</ele><time>2026-04-11T18:20:58.243Z</time></trkpt><trkpt lat="45.931474" lon="8.4254419"><ele>211.0</ele><time>2026-04-11T18:21:01.173Z</time></trkpt><trkpt lat="45.9314563" lon="8.4253072"><ele>210.99999999999997</ele><time>2026-04-11T18:21:04.21Z</time></trkpt><trkpt lat="45.9314483" lon="8.4251974"><ele>211.0</ele><time>2026-04-11T18:21:07.225Z</time></trkpt><trkpt lat="45.9314414" lon="8.4251014"><ele>211.16666666666666</ele><time>2026-04-11T18:21:10.233Z</time></trkpt><trkpt lat="45.9314415" lon="8.4249946"><ele>211.33333333333331</ele><time>2026-04-11T18:21:13.241Z</time></trkpt><trkpt lat="45.9314269" lon="8.4248701"><ele>211.5</ele><time>2026-04-11T18:21:16.272Z</time></trkpt><trkpt lat="45.9314407" lon="8.4247488"><ele>211.66666666666669</ele><time>2026-04-11T18:21:19.189Z</time></trkpt><trkpt lat="45.9314478" lon="8.4246351"><ele>211.83333333333334</ele><time>2026-04-11T18:21:22.265Z</time></trkpt><trkpt lat="45.931456" lon="8.4245422"><ele>212.0</ele><time>2026-04-11T18:21:25.273Z</time></trkpt><trkpt lat="45.9314735" lon="8.42443"><ele>212.50000000000003</ele><time>2026-04-11T18:21:29.105Z</time></trkpt><trkpt lat="45.9314791" lon="8.4243289"><ele>213.0</ele><time>2026-04-11T18:21:32.444Z</time></trkpt><trkpt lat="45.9314831" lon="8.4242244"><ele>213.5</ele><time>2026-04-11T18:21:35.743Z</time></trkpt><trkpt lat="45.9314757" lon="8.4240961"><ele>214.0</ele><time>2026-04-11T18:21:39.071Z</time></trkpt><trkpt lat="45.9314763" lon="8.4239749"><ele>214.50000000000003</ele><time>2026-04-11T18:21:42.218Z</time></trkpt><trkpt lat="45.9314675" lon="8.4238764"><ele>215.0</ele><time>2026-04-11T18:21:45.226Z</time></trkpt><trkpt lat="45.9314439" lon="8.4237778"><ele>215.42857142857142</ele><time>2026-04-11T18:21:48.233Z</time></trkpt><trkpt lat="45.931423" lon="8.4236644"><ele>215.85714285714286</ele><time>2026-04-11T18:21:51.241Z</time></trkpt><trkpt lat="45.9313889" lon="8.4235592"><ele>216.28571428571428</ele><time>2026-04-11T18:21:54.249Z</time></trkpt><trkpt lat="45.9313524" lon="8.4234729"><ele>216.71428571428572</ele><time>2026-04-11T18:21:57.258Z</time></trkpt><trkpt lat="45.9313265" lon="8.4233881"><ele>217.14285714285717</ele><time>2026-04-11T18:22:00.167Z</time></trkpt><trkpt lat="45.931293" lon="8.4232976"><ele>217.57142857142858</ele><time>2026-04-11T18:22:04.176Z</time></trkpt><trkpt lat="45.9312567" lon="8.4232016"><ele>218.0</ele><time>2026-04-11T18:22:08.228Z</time></trkpt><trkpt lat="45.9312377" lon="8.4231115"><ele>218.00000000000003</ele><time>2026-04-11T18:22:13.2Z</time></trkpt><trkpt lat="45.9312777" lon="8.4230375"><ele>218.0</ele><time>2026-04-11T18:22:19.216Z</time></trkpt><trkpt lat="45.9313142" lon="8.4229416"><ele>218.0</ele><time>2026-04-11T18:22:23.167Z</time></trkpt><trkpt lat="45.9313615" lon="8.4228519"><ele>218.0</ele><time>2026-04-11T18:22:26.238Z</time></trkpt><trkpt lat="45.9314144" lon="8.4227577"><ele>218.00000000000003</ele><time>2026-04-11T18:22:29.246Z</time></trkpt><trkpt lat="45.9314455" lon="8.4226456"><ele>218.0</ele><time>2026-04-11T18:22:32.253Z</time></trkpt><trkpt lat="45.9314434" lon="8.4225536"><ele>218.85714285714286</ele><time>2026-04-11T18:22:38.165Z</time></trkpt><trkpt lat="45.9313712" lon="8.422567"><ele>219.71428571428572</ele><time>2026-04-11T18:22:43.183Z</time></trkpt><trkpt lat="45.9313322" lon="8.4224867"><ele>220.57142857142856</ele><time>2026-04-11T18:22:47.192Z</time></trkpt><trkpt lat="45.9313518" lon="8.422374"><ele>221.42857142857144</ele><time>2026-04-11T18:22:51.129Z</time></trkpt><trkpt lat="45.9313998" lon="8.4223067"><ele>222.28571428571428</ele><time>2026-04-11T18:22:53.209Z</time></trkpt><trkpt lat="45.9314462" lon="8.422241"><ele>223.14285714285714</ele><time>2026-04-11T18:22:56.216Z</time></trkpt><trkpt lat="45.9315201" lon="8.4222115"><ele>224.0</ele><time>2026-04-11T18:23:00.226Z</time></trkpt><trkpt lat="45.9315899" lon="8.4222013"><ele>224.0</ele><time>2026-04-11T18:23:02.269Z</time></trkpt><trkpt lat="45.9316699" lon="8.4221491"><ele>224.0</ele><time>2026-04-11T18:23:05.247Z</time></trkpt><trkpt lat="45.9317173" lon="8.422088"><ele>224.0</ele><time>2026-04-11T18:23:08.263Z</time></trkpt><trkpt lat="45.9317727" lon="8.422023"><ele>224.0</ele><time>2026-04-11T18:23:13.989Z</time></trkpt><trkpt lat="45.9318237" lon="8.4219614"><ele>224.0</ele><time>2026-04-11T18:23:19.276Z</time></trkpt><trkpt lat="45.9318848" lon="8.4219122"><ele>224.0</ele><time>2026-04-11T18:23:25.148Z</time></trkpt><trkpt lat="45.9319367" lon="8.4218586"><ele>224.0</ele><time>2026-04-11T18:23:31.206Z</time></trkpt><trkpt lat="45.932" lon="8.4218138"><ele>224.57142857142856</ele><time>2026-04-11T18:23:35.244Z</time></trkpt><trkpt lat="45.9320596" lon="8.4217701"><ele>225.14285714285714</ele><time>2026-04-11T18:23:38.191Z</time></trkpt><trkpt lat="45.9321216" lon="8.421723"><ele>225.71428571428572</ele><time>2026-04-11T18:23:41.17Z</time></trkpt><trkpt lat="45.932192" lon="8.4216853"><ele>226.28571428571428</ele><time>2026-04-11T18:23:45.243Z</time></trkpt><trkpt lat="45.9322591" lon="8.4216256"><ele>226.85714285714283</ele><time>2026-04-11T18:23:50.256Z</time></trkpt><trkpt lat="45.9323252" lon="8.4215754"><ele>227.42857142857142</ele><time>2026-04-11T18:23:53.264Z</time></trkpt><trkpt lat="45.9323993" lon="8.4215283"><ele>228.0</ele><time>2026-04-11T18:23:56.272Z</time></trkpt><trkpt lat="45.9324697" lon="8.4214855"><ele>228.0</ele><time>2026-04-11T18:24:00.089Z</time></trkpt><trkpt lat="45.9325319" lon="8.4214699"><ele>227.99999999999997</ele><time>2026-04-11T18:24:03.191Z</time></trkpt><trkpt lat="45.9325966" lon="8.4215039"><ele>228.0</ele><time>2026-04-11T18:24:06.285Z</time></trkpt><trkpt lat="45.9326633" lon="8.4215324"><ele>228.0</ele><time>2026-04-11T18:24:09.192Z</time></trkpt><trkpt lat="45.9327349" lon="8.421542"><ele>227.99999999999997</ele><time>2026-04-11T18:24:12.131Z</time></trkpt><trkpt lat="45.932811" lon="8.4215434"><ele>228.0</ele><time>2026-04-11T18:24:15.221Z</time></trkpt><trkpt lat="45.9328798" lon="8.4215529"><ele>228.0</ele><time>2026-04-11T18:24:18.229Z</time></trkpt><trkpt lat="45.9329491" lon="8.4215506"><ele>228.66666666666666</ele><time>2026-04-11T18:24:21.265Z</time></trkpt><trkpt lat="45.9330207" lon="8.4215538"><ele>229.33333333333331</ele><time>2026-04-11T18:24:24.151Z</time></trkpt><trkpt lat="45.9331018" lon="8.4215706"><ele>230.0</ele><time>2026-04-11T18:24:27.47Z</time></trkpt><trkpt lat="45.9331746" lon="8.4215812"><ele>230.66666666666666</ele><time>2026-04-11T18:24:30.809Z</time></trkpt><trkpt lat="45.9332531" lon="8.4215897"><ele>231.33333333333331</ele><time>2026-04-11T18:24:34.128Z</time></trkpt><trkpt lat="45.9333371" lon="8.4216027"><ele>232.0</ele><time>2026-04-11T18:24:38.249Z</time></trkpt><trkpt lat="45.9334064" lon="8.4216016"><ele>232.14285714285717</ele><time>2026-04-11T18:24:42.192Z</time></trkpt><trkpt lat="45.9334741" lon="8.4216225"><ele>232.28571428571428</ele><time>2026-04-11T18:25:07.178Z</time></trkpt><trkpt lat="45.9335412" lon="8.4215454"><ele>232.42857142857144</ele><time>2026-04-11T18:25:11.507Z</time></trkpt><trkpt lat="45.9335959" lon="8.4214934"><ele>232.57142857142858</ele><time>2026-04-11T18:25:14.824Z</time></trkpt><trkpt lat="45.9336689" lon="8.4214341"><ele>232.71428571428572</ele><time>2026-04-11T18:25:19.267Z</time></trkpt><trkpt lat="45.9337266" lon="8.4213957"><ele>232.85714285714286</ele><time>2026-04-11T18:25:23.225Z</time></trkpt><trkpt lat="45.9337731" lon="8.4213173"><ele>233.0</ele><time>2026-04-11T18:25:27.235Z</time></trkpt><trkpt lat="45.9338128" lon="8.4212237"><ele>235.14285714285717</ele><time>2026-04-11T18:25:30.243Z</time></trkpt><trkpt lat="45.9338529" lon="8.4211524"><ele>237.28571428571428</ele><time>2026-04-11T18:25:33.251Z</time></trkpt><trkpt lat="45.9338859" lon="8.421074"><ele>239.42857142857144</ele><time>2026-04-11T18:25:37.825Z</time></trkpt><trkpt lat="45.933895" lon="8.4209736"><ele>241.57142857142858</ele><time>2026-04-11T18:25:42.175Z</time></trkpt><trkpt lat="45.9339024" lon="8.4208629"><ele>243.71428571428572</ele><time>2026-04-11T18:25:46.586Z</time></trkpt><trkpt lat="45.9339247" lon="8.4207704"><ele>245.85714285714286</ele><time>2026-04-11T18:25:51.973Z</time></trkpt><trkpt lat="45.9339653" lon="8.4206873"><ele>248.0</ele><time>2026-04-11T18:25:57.208Z</time></trkpt><trkpt lat="45.9340372" lon="8.4206425"><ele>248.0</ele><time>2026-04-11T18:26:02.229Z</time></trkpt><trkpt lat="45.9341023" lon="8.4206133"><ele>248.00000000000003</ele><time>2026-04-11T18:26:06.238Z</time></trkpt><trkpt lat="45.934174" lon="8.4205639"><ele>248.0</ele><time>2026-04-11T18:26:10.231Z</time></trkpt><trkpt lat="45.9342308" lon="8.4205008"><ele>248.0</ele><time>2026-04-11T18:26:14.259Z</time></trkpt><trkpt lat="45.9342795" lon="8.4204279"><ele>248.00000000000003</ele><time>2026-04-11T18:26:18.271Z</time></trkpt><trkpt lat="45.9343216" lon="8.4203521"><ele>248.0</ele><time>2026-04-11T18:26:21.178Z</time></trkpt><trkpt lat="45.93439" lon="8.4203177"><ele>248.0</ele><time>2026-04-11T18:26:27.266Z</time></trkpt><trkpt lat="45.9344346" lon="8.42024"><ele>248.57142857142858</ele><time>2026-04-11T18:26:30.243Z</time></trkpt><trkpt lat="45.934489" lon="8.4201857"><ele>249.14285714285717</ele><time>2026-04-11T18:26:35.148Z</time></trkpt><trkpt lat="45.9345285" lon="8.4201042"><ele>249.71428571428572</ele><time>2026-04-11T18:26:38.223Z</time></trkpt><trkpt lat="45.9345583" lon="8.4200059"><ele>250.28571428571428</ele><time>2026-04-11T18:26:41.231Z</time></trkpt><trkpt lat="45.9344982" lon="8.4199275"><ele>250.85714285714286</ele><time>2026-04-11T18:26:45.443Z</time></trkpt><trkpt lat="45.9344179" lon="8.419902"><ele>251.42857142857144</ele><time>2026-04-11T18:26:49.962Z</time></trkpt><trkpt lat="45.934363" lon="8.4198335"><ele>252.0</ele><time>2026-04-11T18:26:54.147Z</time></trkpt><trkpt lat="45.9344099" lon="8.4197351"><ele>255.0</ele><time>2026-04-11T18:26:58.276Z</time></trkpt><trkpt lat="45.9344364" lon="8.4196362"><ele>258.0</ele><time>2026-04-11T18:27:02.187Z</time></trkpt><trkpt lat="45.9344769" lon="8.4195312"><ele>261.0</ele><time>2026-04-11T18:27:07.552Z</time></trkpt><trkpt lat="45.9344968" lon="8.4194446"><ele>264.0</ele><time>2026-04-11T18:27:12.065Z</time></trkpt><trkpt lat="45.9344843" lon="8.4193451"><ele>267.0</ele><time>2026-04-11T18:27:17.69Z</time></trkpt><trkpt lat="45.9344447" lon="8.4192448"><ele>270.0</ele><time>2026-04-11T18:27:22.212Z</time></trkpt><trkpt lat="45.9343987" lon="8.4191767"><ele>273.0</ele><time>2026-04-11T18:27:26.25Z</time></trkpt><trkpt lat="45.9343397" lon="8.4191064"><ele>273.0</ele><time>2026-04-11T18:27:31.647Z</time></trkpt><trkpt lat="45.934289" lon="8.4190356"><ele>273.0</ele><time>2026-04-11T18:27:37.184Z</time></trkpt><trkpt lat="45.9343012" lon="8.4189413"><ele>273.0</ele><time>2026-04-11T18:27:44.219Z</time></trkpt><trkpt lat="45.9343558" lon="8.4188801"><ele>273.0</ele><time>2026-04-11T18:27:50.239Z</time></trkpt><trkpt lat="45.9344192" lon="8.4188857"><ele>273.0</ele><time>2026-04-11T18:27:56.17Z</time></trkpt><trkpt lat="45.9344852" lon="8.4188698"><ele>273.0</ele><time>2026-04-11T18:28:02.216Z</time></trkpt><trkpt lat="45.9344139" lon="8.4188226"><ele>273.0</ele><time>2026-04-11T18:28:13.171Z</time></trkpt><trkpt lat="45.9343754" lon="8.4187415"><ele>277.57142857142856</ele><time>2026-04-11T18:28:18.195Z</time></trkpt><trkpt lat="45.9343125" lon="8.4187186"><ele>282.1428571428571</ele><time>2026-04-11T18:28:23.215Z</time></trkpt><trkpt lat="45.934321" lon="8.4186245"><ele>286.7142857142857</ele><time>2026-04-11T18:28:32.955Z</time></trkpt><trkpt lat="45.9343844" lon="8.4186488"><ele>291.2857142857143</ele><time>2026-04-11T18:28:39.364Z</time></trkpt><trkpt lat="45.9344492" lon="8.4186481"><ele>295.85714285714283</ele><time>2026-04-11T18:28:42.606Z</time></trkpt><trkpt lat="45.9345192" lon="8.4186711"><ele>300.42857142857144</ele><time>2026-04-11T18:28:46.126Z</time></trkpt><trkpt lat="45.9345852" lon="8.4187107"><ele>305.0</ele><time>2026-04-11T18:28:50.142Z</time></trkpt><trkpt lat="45.9346572" lon="8.4186995"><ele>305.0</ele><time>2026-04-11T18:28:55.17Z</time></trkpt><trkpt lat="45.9347151" lon="8.418663"><ele>305.0</ele><time>2026-04-11T18:28:59.191Z</time></trkpt><trkpt lat="45.9347362" lon="8.4185629"><ele>305.0</ele><time>2026-04-11T18:29:04.215Z</time></trkpt><trkpt lat="45.9346708" lon="8.4185754"><ele>305.0</ele><time>2026-04-11T18:29:09.139Z</time></trkpt><trkpt lat="45.9346088" lon="8.4185933"><ele>305.0</ele><time>2026-04-11T18:29:14.164Z</time></trkpt><trkpt lat="45.9345804" lon="8.4184899"><ele>305.0</ele><time>2026-04-11T18:29:19.176Z</time></trkpt><trkpt lat="45.9345219" lon="8.418445"><ele>305.0</ele><time>2026-04-11T18:29:26.211Z</time></trkpt><trkpt lat="45.9344517" lon="8.4184369"><ele>305.0</ele><time>2026-04-11T18:29:32.229Z</time></trkpt><trkpt lat="45.9345193" lon="8.4184446"><ele>305.0</ele><time>2026-04-11T18:29:46.248Z</time></trkpt><trkpt lat="45.9345843" lon="8.4184112"><ele>305.0</ele><time>2026-04-11T18:29:52.135Z</time></trkpt><trkpt lat="45.9346033" lon="8.4183121"><ele>305.0</ele><time>2026-04-11T18:29:57.156Z</time></trkpt><trkpt lat="45.9345414" lon="8.4182797"><ele>305.0</ele><time>2026-04-11T18:30:02.174Z</time></trkpt><trkpt lat="45.9344739" lon="8.4182872"><ele>305.0</ele><time>2026-04-11T18:30:07.199Z</time></trkpt><trkpt lat="45.9343997" lon="8.4182678"><ele>305.0</ele><time>2026-04-11T18:30:13.332Z</time></trkpt><trkpt lat="45.9343295" lon="8.4182704"><ele>305.0</ele><time>2026-04-11T18:30:19.161Z</time></trkpt><trkpt lat="45.9343068" lon="8.4181793"><ele>305.0</ele><time>2026-04-11T18:30:35.205Z</time></trkpt><trkpt lat="45.9343641" lon="8.4181318"><ele>305.0</ele><time>2026-04-11T18:30:45.162Z</time></trkpt><trkpt lat="45.9344274" lon="8.4181062"><ele>305.0</ele><time>2026-04-11T18:31:01.141Z</time></trkpt><trkpt lat="45.9344226" lon="8.4180145"><ele>305.0</ele><time>2026-04-11T18:31:07.158Z</time></trkpt><trkpt lat="45.934392" lon="8.4179325"><ele>305.0</ele><time>2026-04-11T18:31:19.103Z</time></trkpt><trkpt lat="45.9344338" lon="8.4178577"><ele>305.0</ele><time>2026-04-11T18:32:01.209Z</time></trkpt><trkpt lat="45.9344955" lon="8.4178847"><ele>310.5714285714286</ele><time>2026-04-11T18:32:12.239Z</time></trkpt><trkpt lat="45.934511" lon="8.4177961"><ele>316.1428571428571</ele><time>2026-04-11T18:32:20.26Z</time></trkpt><trkpt lat="45.9345589" lon="8.4176808"><ele>321.7142857142857</ele><time>2026-04-11T18:32:52.241Z</time></trkpt><trkpt lat="45.9346225" lon="8.4176446"><ele>327.28571428571433</ele><time>2026-04-11T18:32:57.565Z</time></trkpt><trkpt lat="45.9346295" lon="8.4175527"><ele>332.8571428571429</ele><time>2026-04-11T18:33:10.54Z</time></trkpt><trkpt lat="45.9346562" lon="8.4174616"><ele>338.42857142857144</ele><time>2026-04-11T18:33:30.203Z</time></trkpt><trkpt lat="45.9347034" lon="8.4173996"><ele>344.0</ele><time>2026-04-11T18:33:42.288Z</time></trkpt><trkpt lat="45.9347207" lon="8.4172966"><ele>344.0</ele><time>2026-04-11T18:33:49.266Z</time></trkpt><trkpt lat="45.9347552" lon="8.4171876"><ele>344.0</ele><time>2026-04-11T18:33:54.266Z</time></trkpt><trkpt lat="45.9347597" lon="8.4170965"><ele>377.0</ele><time>2026-04-11T18:33:58.277Z</time></trkpt><trkpt lat="45.9347819" lon="8.4170014"><ele>377.0</ele><time>2026-04-11T18:34:03.591Z</time></trkpt><trkpt lat="45.9347984" lon="8.4169128"><ele>377.0</ele><time>2026-04-11T18:34:10.208Z</time></trkpt><trkpt lat="45.9348647" lon="8.416944"><ele>377.0</ele><time>2026-04-11T18:34:27.607Z</time></trkpt></trkseg></trk></gpx>